Погода Масдарна неделю

Абу-Даби, ОАЭ

24 февраля-01 марта
  • 24февраля
    Сегодня
    +21°
    +24°
    Ясно и безоблачно
    ВремяПогодаТемператураВлажностьДавлениеВетер, м/сВероятность осадков
    01:00Ясно и безоблачно+22°C89 %761 мм2.9 м/с2 %
    04:00Ясно и безоблачно+21°C89 %760 мм3.2 м/с2 %
    07:00Ясно и безоблачно+21°C86 %761 мм3.1 м/с2 %
    10:00Ясно и безоблачно+23°C69 %762 мм1.8 м/с2 %
    13:00Ясно и безоблачно+24°C56 %761 мм4.1 м/с2 %
    16:00Ясно и безоблачно+23°C60 %759 мм3.4 м/с2 %
    19:00Ясно и безоблачно+22°C73 %760 мм2.3 м/с2 %
    22:00Облачно с прояснениями+22°C83 %760 мм1.8 м/с2 %
  • 25февраля
    Воскресенье
    +20°
    +27°
    Ясно и безоблачно
    ВремяПогодаТемператураВлажностьДавлениеВетер, м/сВероятность осадков
    01:00Облачно с прояснениями+22°C83 %758 мм2.9 м/с2 %
    04:00Облачно с прояснениями+22°C76 %757 мм2.1 м/с2 %
    07:00Облачно с прояснениями+21°C72 %757 мм2.4 м/с2 %
    10:00Практически безоблачно+23°C47 %758 мм2.5 м/с2 %
    13:00Ясно и безоблачно+26°C39 %755 мм0.4 м/с2 %
    16:00Небольшая облачность+24°C54 %754 мм6.7 м/с2 %
    19:00Небольшая облачность+24°C56 %755 мм6.2 м/с24 %
    22:00Небольшая облачность+23°C66 %756 мм5.3 м/с25 %
  • 26февраля
    Понедельник
    +19°
    +23°
    Ясно и безоблачно
    ВремяПогодаТемператураВлажностьДавлениеВетер, м/сВероятность осадков
    01:00Ясно и безоблачно+22°C85 %756 мм7.2 м/с3 %
    04:00Ясно и безоблачно+21°C83 %756 мм7.1 м/с2 %
    07:00Ясно и безоблачно+21°C79 %758 мм5.5 м/с2 %
    10:00Ясно и безоблачно+21°C69 %759 мм5.9 м/с2 %
    13:00Ясно и безоблачно+22°C63 %758 мм7.2 м/с2 %
    16:00Небольшая облачность+22°C60 %757 мм7.7 м/с2 %
    19:00Практически безоблачно+20°C69 %759 мм6.7 м/с2 %
    22:00Ясно и безоблачно+20°C72 %760 мм5.5 м/с2 %
  • 27февраля
    Вторник
    +19°
    +23°
    Ясно и безоблачно
    ВремяПогодаТемператураВлажностьДавлениеВетер, м/сВероятность осадков
    01:00Практически безоблачно+20°C73 %760 мм4.8 м/с2 %
    04:00Практически безоблачно+20°C71 %759 мм4.5 м/с2 %
    07:00Небольшая облачность+20°C71 %760 мм3.9 м/с2 %
    10:00Практически безоблачно+21°C62 %761 мм2.8 м/с2 %
    13:00Ясно и безоблачно+22°C59 %761 мм4.6 м/с2 %
    16:00Ясно и безоблачно+22°C59 %760 мм5.2 м/с2 %
    19:00Ясно и безоблачно+21°C59 %760 мм4.8 м/с2 %
    22:00Ясно и безоблачно+21°C62 %761 мм3.5 м/с2 %
  • 28февраля
    Среда
    +21°
    +24°
    Практически безоблачно
    ВремяПогодаТемператураВлажностьДавлениеВетер, м/сВероятность осадков
    01:00Ясно и безоблачно+21°C69 %760 мм3.1 м/с2 %
    04:00Практически безоблачно+20°C72 %760 мм3.4 м/с2 %
    07:00Небольшая облачность+20°C80 %760 мм2.3 м/с2 %
    10:00Ясно и безоблачно+21°C64 %761 мм1.3 м/с2 %
    13:00Практически безоблачно+23°C60 %760 мм4.4 м/с2 %
    16:00Ясно и безоблачно+23°C59 %759 мм5.2 м/с2 %
    19:00Ясно и безоблачно+22°C63 %759 мм4.1 м/с3 %
    22:00Ясно и безоблачно+22°C72 %760 мм2.7 м/с2 %
Мы используем cookies
Соглашаюсь